Armstrong Airport
CYYW : rendu visible

Aérodrome :











RETROUVEZ-NOUS SUR...

 
LOGIN :

S'inscrire | Disclaimer

   EN    FR    IT 

 









Légende :    VFR   VFR Marginal   IFR   IFR Intensif   IFR Très Intensif
Visi : 
Plafond : 
>= 8 km
>= 3000ft
5 à 8 km
1000 à 3000 ft
1500m à 5 km
500 à 1000 ft
800 à 1500m
200 à 500 ft
< 800m
< 200 ft
Symboles :   Orages  Brouillard  Fortes neiges  Fortes précipitations  Vent > 20 kt






- Altitude de l'aérodrome : 1058 ft
- Code IATA : YYW


CYYW - Armstrong

DERNIER METAR :
  • 281325Z AUTO VRB02KT 7SM -SN M11/M12 A3012 RMK CLD MISG ICG MISG SLP235

METARs EXPIRÉS :
  • 281300Z AUTO VRB02KT 7SM -SN M11/M12 A3011 RMK CLD MISG SLP232
  • 281256Z AUTO 01004KT 290V040 5SM -SN M11/M12 A3011 RMK CLD MISG SLP231
  • 281201Z AUTO VRB02KT 9SM -SN RMK CLD MISG T MISG TD MISG DENSITY ALT MISG
  • 281125Z AUTO VRB04KT 6SM -SN M10/M11 A3010 RMK CLD MISG SLP225
  • 281114Z AUTO /////KT 3SM -SN M10/M11 A3009 RMK VIS VRB 9-9 WND MISG CLD MISG SLP224
  • 281108Z AUTO /////KT 2 1/2SM -SN M10/M11 A3009 RMK VIS VRB 1 1/4-3 WND MISG CLD MISG SLP224

TAF N/A



MET'MAP, la Météo Aéronautique d'un coup d'oeil ! - Copyright ORBIFLY Décembre 2007 - Disclaimer

ORBIFLY MET'MAP TEAM :

Programmation & Développement : Alexandra Zaïnal
Sur une idée originale de : Baudouin d'Aumeries
Assistance à la programmation : Marc-Olivier Méhu
Soutien technique & logistique : Manuel Goepfert

Contact : metmap@orbifly.com




SOURCES & CREDITS :

   NOAA       Earth
Advisory